Time;durP1;ratioP1;P1;durP2;ratioP2;P2;SDS_P1;SDS_P2;PMS_P1;PMS_P2;Temp;Humidity;BMP_temperature;BMP_pressure;BME280_temperature;BME280_humidity;BME280_pressure;Samples;Min_cycle;Max_cycle;Signal;HPM_P1;HPM_P2
2023/05/08 00:01:24;;;;;;;0.62;0.62;;;9.80;99.90;;;;;;4432719;32;20078;-67
2023/05/08 00:03:51;;;;;;;0.93;0.90;;;9.80;99.90;;;;;;4423707;32;20082;-66
2023/05/08 00:06:17;;;;;;;0.60;0.60;;;9.80;99.90;;;;;;4431630;32;20066;-66
2023/05/08 00:08:43;;;;;;;0.65;0.45;;;9.80;99.90;;;;;;4428890;32;20096;-66
2023/05/08 00:11:08;;;;;;;0.55;0.55;;;9.70;99.90;;;;;;4432718;32;20081;-67
2023/05/08 00:13:34;;;;;;;0.50;0.50;;;9.80;99.90;;;;;;4423757;32;20078;-66
2023/05/08 00:15:59;;;;;;;0.50;0.43;;;9.70;99.90;;;;;;4431969;32;20082;-66
2023/05/08 00:18:25;;;;;;;0.60;0.60;;;9.60;99.90;;;;;;4430090;32;20607;-65
2023/05/08 00:20:51;;;;;;;0.75;0.62;;;9.60;99.90;;;;;;4429636;32;20090;-65
2023/05/08 00:23:16;;;;;;;3.30;0.82;;;9.50;99.90;;;;;;4432803;32;20094;-64
2023/05/08 00:25:42;;;;;;;1.37;0.80;;;9.50;99.90;;;;;;4428578;32;20618;-65
2023/05/08 00:28:07;;;;;;;0.50;0.50;;;9.50;99.90;;;;;;4429356;32;20080;-65
2023/05/08 00:30:32;;;;;;;0.40;0.40;;;9.50;99.90;;;;;;4431688;32;20058;-65
2023/05/08 00:32:58;;;;;;;0.80;0.80;;;9.40;99.90;;;;;;4433481;32;20177;-65
2023/05/08 00:35:23;;;;;;;0.70;0.70;;;9.50;99.90;;;;;;4429009;32;20163;-64
2023/05/08 00:37:49;;;;;;;0.50;0.50;;;9.40;99.90;;;;;;4427082;32;20470;-65
2023/05/08 00:40:15;;;;;;;0.62;0.62;;;9.50;99.90;;;;;;4430508;32;20426;-67
2023/05/08 00:42:40;;;;;;;1.50;1.40;;;9.50;99.90;;;;;;4433227;32;20127;-66
2023/05/08 00:45:07;;;;;;;0.68;0.68;;;9.50;99.90;;;;;;4431149;32;20070;-67
2023/05/08 00:47:34;;;;;;;0.40;0.40;;;9.40;99.90;;;;;;4432049;32;20068;-67
2023/05/08 00:50:00;;;;;;;0.40;0.40;;;9.40;99.90;;;;;;4432612;32;20307;-66
2023/05/08 00:52:28;;;;;;;0.55;0.55;;;9.30;99.90;;;;;;4436325;32;20132;-67
2023/05/08 00:54:54;;;;;;;0.68;0.68;;;9.20;99.90;;;;;;4426235;32;20069;-66
2023/05/08 00:57:21;;;;;;;2.47;0.73;;;9.20;99.90;;;;;;4432984;32;20140;-67
2023/05/08 00:59:48;;;;;;;0.70;0.70;;;9.10;99.90;;;;;;4428350;32;20322;-67
2023/05/08 01:02:13;;;;;;;0.50;0.50;;;9.10;99.90;;;;;;4431722;32;20065;-66
2023/05/08 01:04:40;;;;;;;0.80;0.80;;;9.10;99.90;;;;;;4429005;32;20105;-67
2023/05/08 01:07:06;;;;;;;0.95;0.85;;;9.00;99.90;;;;;;4434855;32;20069;-66
2023/05/08 01:09:32;;;;;;;0.52;0.52;;;9.10;99.90;;;;;;4433569;32;20085;-66
2023/05/08 01:12:16;;;;;;;0.45;0.45;;;9.00;99.90;;;;;;4431088;32;20085;-66
2023/05/08 01:15:12;;;;;;;1.12;0.68;;;9.00;99.90;;;;;;4430941;32;20089;-67
2023/05/08 01:17:56;;;;;;;0.45;0.45;;;8.90;99.90;;;;;;4426234;32;20116;-67
2023/05/08 01:21:01;;;;;;;0.85;0.85;;;8.80;99.90;;;;;;4431974;32;20069;-67
2023/05/08 01:23:51;;;;;;;0.50;0.50;;;8.90;99.90;;;;;;4426732;32;21219;-66
2023/05/08 01:26:38;;;;;;;1.80;0.47;;;8.80;99.90;;;;;;4430704;32;20078;-66
2023/05/08 01:29:37;;;;;;;0.57;0.57;;;8.70;99.90;;;;;;4427628;32;20101;-66
2023/05/08 01:32:16;;;;;;;0.73;0.73;;;8.70;99.90;;;;;;4428199;32;20152;-66
2023/05/08 01:34:51;;;;;;;0.90;0.90;;;8.70;99.90;;;;;;4430331;32;20083;-66
2023/05/08 01:37:26;;;;;;;0.43;0.43;;;8.70;99.90;;;;;;4430102;32;20458;-66
2023/05/08 01:40:10;;;;;;;0.52;0.52;;;8.60;99.90;;;;;;4426089;32;20110;-66
2023/05/08 01:42:46;;;;;;;0.80;0.50;;;8.60;99.90;;;;;;4431078;32;20069;-66
2023/05/08 01:45:21;;;;;;;1.55;1.08;;;8.70;99.90;;;;;;4430052;32;20620;-66
2023/05/08 01:47:53;;;;;;;0.40;0.40;;;8.60;99.90;;;;;;4429204;32;20075;-65
2023/05/08 01:50:29;;;;;;;0.60;0.60;;;8.60;99.90;;;;;;4433264;32;20077;-66
2023/05/08 01:53:07;;;;;;;0.47;0.47;;;8.70;99.90;;;;;;4427222;32;20188;-66
2023/05/08 01:55:36;;;;;;;7.95;0.57;;;8.60;99.90;;;;;;4429332;32;20097;-66
2023/05/08 01:58:07;;;;;;;0.40;0.40;;;8.60;99.90;;;;;;4424638;32;20061;-66
2023/05/08 02:00:33;;;;;;;0.70;0.70;;;8.50;99.90;;;;;;4433684;32;20065;-66
2023/05/08 02:02:59;;;;;;;0.50;0.50;;;8.50;99.90;;;;;;4431214;32;20378;-67
2023/05/08 02:05:26;;;;;;;0.55;0.55;;;8.50;99.90;;;;;;4432433;32;20089;-67
2023/05/08 02:07:53;;;;;;;0.60;0.60;;;8.50;99.90;;;;;;4431688;32;20489;-67
2023/05/08 02:10:21;;;;;;;1.17;0.68;;;8.50;99.90;;;;;;4430514;32;20057;-67
2023/05/08 02:12:48;;;;;;;0.43;0.43;;;8.50;99.90;;;;;;4430470;32;20061;-67
2023/05/08 02:15:16;;;;;;;0.73;0.73;;;8.50;99.90;;;;;;4430538;32;20062;-66
2023/05/08 02:17:44;;;;;;;0.70;0.70;;;8.40;99.90;;;;;;4427915;32;20120;-66
2023/05/08 02:20:13;;;;;;;0.50;0.50;;;8.30;99.90;;;;;;4430842;32;20454;-66
2023/05/08 02:22:42;;;;;;;0.50;0.50;;;8.30;99.90;;;;;;4431429;32;20077;-66
2023/05/08 02:25:08;;;;;;;1.20;1.10;;;8.30;99.90;;;;;;4431755;32;20128;-66
2023/05/08 02:27:35;;;;;;;0.70;0.70;;;8.30;99.90;;;;;;4427794;32;20093;-66
2023/05/08 02:30:01;;;;;;;2.40;1.08;;;8.30;99.90;;;;;;4428587;32;20357;-66
2023/05/08 02:32:28;;;;;;;0.45;0.45;;;8.30;99.90;;;;;;4432530;32;20404;-66
2023/05/08 02:34:55;;;;;;;0.60;0.60;;;8.30;99.90;;;;;;4430536;32;20153;-66
2023/05/08 02:37:23;;;;;;;1.30;0.70;;;8.30;99.90;;;;;;4434369;32;20069;-67
2023/05/08 02:39:51;;;;;;;0.60;0.60;;;8.30;99.90;;;;;;4429866;32;20116;-67
2023/05/08 02:42:17;;;;;;;0.40;0.40;;;8.30;99.90;;;;;;4428098;32;20061;-66
2023/05/08 02:44:43;;;;;;;0.55;0.55;;;8.30;99.90;;;;;;4431043;32;20078;-66
2023/05/08 02:47:33;;;;;;;0.50;0.50;;;8.30;99.90;;;;;;4430939;32;20439;-66
2023/05/08 02:50:03;;;;;;;0.47;0.47;;;8.30;99.90;;;;;;4422213;32;20077;-66
2023/05/08 02:52:41;;;;;;;0.60;0.60;;;8.20;99.90;;;;;;4430921;32;20077;-66
2023/05/08 02:55:25;;;;;;;7.40;1.17;;;8.10;99.90;;;;;;4429086;32;20078;-66
2023/05/08 02:58:14;;;;;;;0.55;0.55;;;8.10;99.90;;;;;;4425072;32;20145;-66
2023/05/08 03:00:46;;;;;;;1.25;0.88;;;8.00;99.90;;;;;;4426900;32;20084;-66
2023/05/08 03:03:21;;;;;;;1.27;0.70;;;7.90;99.90;;;;;;4425989;32;20163;-66
2023/05/08 03:05:51;;;;;;;1.12;1.02;;;8.00;99.90;;;;;;4430698;32;20074;-66
2023/05/08 03:08:21;;;;;;;0.50;0.50;;;8.00;99.90;;;;;;4424716;32;20604;-66
2023/05/08 03:10:51;;;;;;;0.60;0.60;;;8.00;99.90;;;;;;4435850;32;20080;-66
2023/05/08 03:13:19;;;;;;;2.58;0.90;;;7.90;99.90;;;;;;4429896;32;20085;-66
2023/05/08 03:15:51;;;;;;;0.40;0.40;;;8.00;99.90;;;;;;4425700;32;20064;-66
2023/05/08 03:18:19;;;;;;;0.60;0.60;;;7.90;99.90;;;;;;4431249;32;20876;-66
2023/05/08 03:20:48;;;;;;;0.50;0.50;;;7.90;99.90;;;;;;4433586;32;20065;-66
2023/05/08 03:23:15;;;;;;;4.85;0.60;;;7.90;99.90;;;;;;4415972;32;20078;-66
2023/05/08 03:25:42;;;;;;;2.25;0.93;;;7.80;99.90;;;;;;4432138;32;20077;-67
2023/05/08 03:28:10;;;;;;;0.65;0.65;;;7.80;99.90;;;;;;4435751;32;20061;-67
2023/05/08 03:30:36;;;;;;;4.18;1.98;;;7.70;99.90;;;;;;4429450;32;20077;-66
2023/05/08 03:33:04;;;;;;;0.55;0.55;;;7.70;99.90;;;;;;4426358;32;20160;-66
2023/05/08 03:35:30;;;;;;;0.40;0.40;;;7.80;99.90;;;;;;4431790;32;20437;-66
2023/05/08 03:37:57;;;;;;;0.60;0.60;;;7.90;99.90;;;;;;4430607;32;20074;-66
2023/05/08 03:40:23;;;;;;;4.20;0.85;;;7.80;99.90;;;;;;4431479;32;20065;-66
2023/05/08 03:42:49;;;;;;;0.85;0.82;;;7.80;99.90;;;;;;4432130;32;20081;-66
2023/05/08 03:45:16;;;;;;;2.72;0.88;;;7.80;99.90;;;;;;4430022;32;20199;-65
2023/05/08 03:47:43;;;;;;;0.60;0.60;;;7.80;99.90;;;;;;4426221;32;20623;-66
2023/05/08 03:50:08;;;;;;;0.40;0.40;;;7.80;99.90;;;;;;4430647;32;20721;-66
2023/05/08 03:52:37;;;;;;;0.60;0.60;;;7.80;99.90;;;;;;4426626;32;20061;-64
2023/05/08 03:55:03;;;;;;;0.52;0.52;;;8.00;99.90;;;;;;4428471;32;20155;-66
2023/05/08 03:57:36;;;;;;;0.55;0.55;;;7.90;99.90;;;;;;4429633;32;20402;-64
2023/05/08 04:00:08;;;;;;;0.52;0.52;;;7.90;99.90;;;;;;4432399;32;20065;-66
2023/05/08 04:02:40;;;;;;;0.50;0.50;;;8.00;99.90;;;;;;4429523;32;20136;-66
2023/05/08 04:05:20;;;;;;;0.60;0.60;;;8.00;99.90;;;;;;4424009;32;20082;-66
2023/05/08 04:08:07;;;;;;;0.52;0.52;;;8.00;99.90;;;;;;4416711;32;20453;-67
2023/05/08 04:10:42;;;;;;;0.60;0.60;;;8.10;99.90;;;;;;4425377;32;20101;-66
2023/05/08 04:13:12;;;;;;;0.57;0.57;;;8.10;99.90;;;;;;4430027;32;20456;-66
2023/05/08 04:15:49;;;;;;;0.50;0.50;;;8.10;99.90;;;;;;4429400;32;20065;-66
2023/05/08 04:18:17;;;;;;;0.55;0.55;;;8.10;99.90;;;;;;4432913;32;20158;-66
2023/05/08 04:20:47;;;;;;;0.80;0.80;;;8.20;99.90;;;;;;4427392;32;20155;-65
2023/05/08 04:23:17;;;;;;;0.50;0.50;;;8.20;99.90;;;;;;4425742;32;20085;-66
2023/05/08 04:25:43;;;;;;;0.50;0.50;;;8.20;99.90;;;;;;4428298;32;20069;-66
2023/05/08 04:28:10;;;;;;;0.60;0.60;;;8.10;99.90;;;;;;4423220;32;20145;-66
2023/05/08 04:30:36;;;;;;;0.43;0.43;;;8.10;99.90;;;;;;4429771;32;20086;-66
2023/05/08 04:33:03;;;;;;;0.50;0.50;;;8.10;99.90;;;;;;4430997;32;20159;-66
2023/05/08 04:35:28;;;;;;;0.75;0.75;;;8.20;99.90;;;;;;4433646;32;20082;-66
2023/05/08 04:37:54;;;;;;;0.50;0.50;;;8.30;99.90;;;;;;4427707;32;20069;-67
2023/05/08 04:40:20;;;;;;;1.12;1.08;;;8.40;99.90;;;;;;4428860;32;20057;-66
2023/05/08 04:42:46;;;;;;;0.68;0.68;;;8.40;99.90;;;;;;4425308;32;20098;-66
2023/05/08 04:45:12;;;;;;;1.77;0.82;;;8.50;99.90;;;;;;4430526;32;20414;-66
2023/05/08 04:47:37;;;;;;;0.75;0.75;;;8.60;99.90;;;;;;4428869;32;20145;-67
2023/05/08 04:50:03;;;;;;;0.47;0.47;;;8.70;99.90;;;;;;4423699;32;20074;-66
2023/05/08 04:52:28;;;;;;;2.12;1.20;;;8.80;99.90;;;;;;4429663;32;20165;-67
2023/05/08 04:54:54;;;;;;;0.60;0.60;;;8.80;99.90;;;;;;4429962;32;20085;-66
2023/05/08 04:57:19;;;;;;;0.62;0.62;;;8.80;99.90;;;;;;4423478;32;20065;-67
2023/05/08 04:59:45;;;;;;;2.03;1.02;;;8.80;99.90;;;;;;4428439;32;20434;-67
2023/05/08 05:02:10;;;;;;;0.50;0.50;;;8.90;99.90;;;;;;4424312;32;20053;-66
2023/05/08 05:04:36;;;;;;;1.17;1.05;;;8.90;99.90;;;;;;4428550;32;20105;-67
2023/05/08 05:07:02;;;;;;;0.50;0.50;;;8.80;99.90;;;;;;4426643;32;20069;-65
2023/05/08 05:09:28;;;;;;;0.50;0.50;;;8.70;99.90;;;;;;4426166;32;20089;-65
2023/05/08 05:11:55;;;;;;;0.40;0.40;;;8.70;99.90;;;;;;4421827;32;20086;-65
2023/05/08 05:14:20;;;;;;;0.65;0.65;;;8.80;99.90;;;;;;4427821;32;20587;-65
2023/05/08 05:16:46;;;;;;;0.62;0.62;;;8.80;99.90;;;;;;4423266;32;20077;-65
2023/05/08 05:19:12;;;;;;;0.98;0.98;;;8.90;99.90;;;;;;4420097;32;20531;-65
2023/05/08 05:21:38;;;;;;;1.05;0.73;;;8.90;99.90;;;;;;4427996;32;20659;-65
2023/05/08 05:24:05;;;;;;;0.40;0.40;;;8.90;99.90;;;;;;4426707;32;20077;-65
2023/05/08 05:26:31;;;;;;;0.45;0.45;;;8.90;99.90;;;;;;4418421;32;20061;-65
2023/05/08 05:28:57;;;;;;;2.00;1.20;;;8.90;99.90;;;;;;4422342;32;20073;-66
2023/05/08 05:31:22;;;;;;;0.40;0.40;;;9.00;99.90;;;;;;4408902;32;20295;-66
2023/05/08 05:33:48;;;;;;;0.62;0.62;;;8.90;99.90;;;;;;4427868;32;20065;-68
2023/05/08 05:36:13;;;;;;;0.40;0.40;;;8.90;99.90;;;;;;4425199;32;20533;-66
2023/05/08 05:38:40;;;;;;;0.50;0.50;;;9.00;99.90;;;;;;4421943;32;20435;-69
2023/05/08 05:41:06;;;;;;;0.62;0.60;;;9.20;99.90;;;;;;4426596;32;20215;-67
2023/05/08 05:43:33;;;;;;;0.50;0.50;;;9.30;99.90;;;;;;4426138;32;20533;-67
2023/05/08 05:46:07;;;;;;;1.55;0.73;;;9.30;99.90;;;;;;4427321;32;20056;-66
2023/05/08 05:48:35;;;;;;;0.68;0.68;;;9.30;99.90;;;;;;4423742;32;20446;-68
2023/05/08 05:51:02;;;;;;;0.47;0.47;;;9.40;99.90;;;;;;4425760;32;20108;-67
2023/05/08 05:53:27;;;;;;;2.37;1.17;;;9.40;99.90;;;;;;4426296;32;20098;-67
2023/05/08 05:55:53;;;;;;;0.40;0.40;;;9.50;99.90;;;;;;4419916;32;20149;-68
2023/05/08 05:58:19;;;;;;;0.80;0.80;;;9.50;99.90;;;;;;4420027;32;20125;-65
2023/05/08 06:00:46;;;;;;;0.50;0.50;;;9.50;99.90;;;;;;4407329;32;20077;-64
2023/05/08 06:03:12;;;;;;;0.68;0.68;;;9.60;99.90;;;;;;4405700;32;20094;-65
2023/05/08 06:05:39;;;;;;;0.50;0.50;;;9.80;99.90;;;;;;4408038;32;20567;-65
2023/05/08 06:08:05;;;;;;;0.40;0.40;;;9.90;99.90;;;;;;4414914;32;20085;-68
2023/05/08 06:10:30;;;;;;;1.98;0.85;;;9.80;99.90;;;;;;4416654;32;20358;-66
2023/05/08 06:12:56;;;;;;;0.98;0.93;;;9.90;99.90;;;;;;4409640;32;20084;-65
2023/05/08 06:15:22;;;;;;;0.57;0.57;;;9.90;99.90;;;;;;4403409;32;20344;-65
2023/05/08 06:17:47;;;;;;;3.45;1.65;;;9.90;99.90;;;;;;4401122;32;20093;-66
2023/05/08 06:20:13;;;;;;;0.60;0.60;;;9.90;99.90;;;;;;4401132;32;20073;-66
2023/05/08 06:22:39;;;;;;;0.60;0.60;;;10.10;99.90;;;;;;4411241;32;20101;-65
2023/05/08 06:25:07;;;;;;;0.85;0.85;;;10.10;99.90;;;;;;4405393;32;20787;-67
2023/05/08 06:27:33;;;;;;;0.55;0.55;;;10.10;99.90;;;;;;4412508;32;20100;-66
2023/05/08 06:29:59;;;;;;;0.70;0.70;;;10.00;99.90;;;;;;4412363;32;20092;-67
2023/05/08 06:32:25;;;;;;;0.40;0.40;;;10.00;99.90;;;;;;4412091;32;20110;-66
2023/05/08 06:34:51;;;;;;;0.50;0.50;;;10.10;99.90;;;;;;4415803;32;20191;-67
2023/05/08 06:37:16;;;;;;;0.45;0.45;;;10.20;99.90;;;;;;4411157;32;20505;-65
2023/05/08 06:39:42;;;;;;;0.60;0.60;;;10.40;99.90;;;;;;4412103;32;20135;-66
2023/05/08 06:42:07;;;;;;;1.17;0.68;;;10.50;99.90;;;;;;4417311;32;20088;-66
2023/05/08 06:44:33;;;;;;;2.33;1.52;;;10.40;99.90;;;;;;4414237;32;20568;-66
2023/05/08 06:46:58;;;;;;;5.53;0.70;;;10.50;99.90;;;;;;4417669;32;20113;-67
2023/05/08 06:49:24;;;;;;;0.85;0.77;;;10.50;99.90;;;;;;4406167;32;20077;-65
2023/05/08 06:51:50;;;;;;;0.93;0.90;;;10.60;99.90;;;;;;4408139;32;20116;-66
2023/05/08 06:54:16;;;;;;;0.50;0.50;;;10.70;99.90;;;;;;4409936;32;20224;-66
2023/05/08 06:56:42;;;;;;;0.88;0.82;;;10.80;99.90;;;;;;4402187;32;20750;-67
2023/05/08 06:59:08;;;;;;;0.43;0.43;;;10.80;99.90;;;;;;4414985;32;20132;-66
2023/05/08 07:01:33;;;;;;;0.55;0.55;;;10.90;99.90;;;;;;4406420;32;24910;-68
2023/05/08 07:04:00;;;;;;;15.30;1.05;;;10.90;99.90;;;;;;4409959;32;20436;-68
2023/05/08 07:06:26;;;;;;;0.47;0.47;;;11.00;99.90;;;;;;4411194;32;20185;-66
2023/05/08 07:08:52;;;;;;;0.50;0.50;;;11.00;99.90;;;;;;4410194;32;20511;-66
2023/05/08 07:11:17;;;;;;;0.50;0.50;;;11.10;99.90;;;;;;4414899;32;20088;-68
2023/05/08 07:13:44;;;;;;;2.12;0.85;;;11.10;99.90;;;;;;4413646;32;20085;-66
2023/05/08 07:16:11;;;;;;;0.32;0.30;;;11.30;99.90;;;;;;4418029;32;20085;-66
2023/05/08 07:18:37;;;;;;;0.62;0.60;;;11.40;99.90;;;;;;4415000;32;20607;-65
2023/05/08 07:21:02;;;;;;;0.50;0.50;;;11.50;99.90;;;;;;4405012;32;20144;-66
2023/05/08 07:23:28;;;;;;;0.40;0.40;;;11.60;99.90;;;;;;4409163;32;20072;-66
2023/05/08 07:25:54;;;;;;;0.47;0.47;;;11.70;99.90;;;;;;4411115;32;20392;-66
2023/05/08 07:28:19;;;;;;;0.50;0.50;;;11.90;99.90;;;;;;4410769;32;20138;-66
2023/05/08 07:30:45;;;;;;;0.77;0.77;;;11.90;99.90;;;;;;4410335;32;20143;-65
2023/05/08 07:33:11;;;;;;;0.77;0.77;;;12.00;99.90;;;;;;4405466;32;20137;-66
2023/05/08 07:35:38;;;;;;;1.20;1.10;;;12.20;99.90;;;;;;4409351;32;20135;-67
2023/05/08 07:38:04;;;;;;;0.65;0.65;;;12.40;99.90;;;;;;4409246;32;20102;-67
2023/05/08 07:40:29;;;;;;;0.50;0.50;;;12.50;99.90;;;;;;4410528;32;20084;-67
2023/05/08 07:42:55;;;;;;;0.50;0.50;;;12.50;99.90;;;;;;4410992;32;20100;-66
2023/05/08 07:45:20;;;;;;;0.60;0.60;;;12.40;99.90;;;;;;4399085;32;20109;-66
2023/05/08 07:47:48;;;;;;;0.40;0.40;;;12.60;99.90;;;;;;4403721;32;20070;-68
2023/05/08 07:50:14;;;;;;;0.57;0.57;;;12.70;99.90;;;;;;4403624;32;20073;-65
2023/05/08 07:52:40;;;;;;;0.65;0.50;;;13.00;99.90;;;;;;4401090;32;20097;-67
2023/05/08 07:55:06;;;;;;;0.50;0.50;;;13.20;99.90;;;;;;4400693;32;21186;-66
2023/05/08 07:57:40;;;;;;;0.40;0.40;;;13.20;99.90;;;;;;4411792;32;20541;-68
2023/05/08 08:00:08;;;;;;;0.52;0.52;;;13.40;99.90;;;;;;4396135;32;21003;-66
2023/05/08 08:02:35;;;;;;;1.75;0.40;;;13.40;99.90;;;;;;4395371;32;20944;-65
2023/05/08 08:05:01;;;;;;;0.30;0.30;;;13.40;99.90;;;;;;4399644;32;20081;-67
2023/05/08 08:07:26;;;;;;;0.50;0.50;;;13.60;99.90;;;;;;4398504;32;20560;-67
2023/05/08 08:09:52;;;;;;;9.57;2.00;;;13.70;99.90;;;;;;4401192;32;20108;-66
2023/05/08 08:12:19;;;;;;;0.93;0.60;;;13.70;99.90;;;;;;4406742;32;20224;-67
2023/05/08 08:14:45;;;;;;;0.50;0.50;;;13.60;99.90;;;;;;4400255;32;20085;-67
2023/05/08 08:17:10;;;;;;;1.23;1.12;;;13.60;99.90;;;;;;4401355;32;20097;-68
2023/05/08 08:19:36;;;;;;;0.70;0.65;;;13.70;99.90;;;;;;4388245;32;20061;-68
2023/05/08 08:22:01;;;;;;;0.40;0.40;;;13.60;99.90;;;;;;4392560;32;20458;-66
2023/05/08 08:24:28;;;;;;;0.50;0.50;;;13.60;99.90;;;;;;4390711;32;20081;-67
2023/05/08 08:26:53;;;;;;;0.60;0.60;;;13.70;99.90;;;;;;4389479;32;20110;-65
2023/05/08 08:29:19;;;;;;;0.40;0.40;;;13.80;99.90;;;;;;4385255;32;20092;-65
2023/05/08 08:31:44;;;;;;;0.40;0.40;;;13.80;99.90;;;;;;4388664;32;20109;-65
2023/05/08 08:34:10;;;;;;;2.03;1.60;;;14.00;99.90;;;;;;4389866;32;20190;-65
2023/05/08 08:36:36;;;;;;;0.93;0.93;;;14.10;98.80;;;;;;4403206;32;20080;-66
2023/05/08 08:39:01;;;;;;;2.28;1.48;;;14.10;98.50;;;;;;4396825;32;20412;-66
2023/05/08 08:41:27;;;;;;;0.50;0.50;;;14.20;98.40;;;;;;4392831;32;20100;-66
2023/05/08 08:43:53;;;;;;;0.50;0.50;;;14.20;97.30;;;;;;4403601;32;20406;-66
2023/05/08 08:46:24;;;;;;;0.30;0.30;;;14.30;96.60;;;;;;4397975;32;20399;-68
2023/05/08 08:48:51;;;;;;;0.50;0.50;;;14.20;97.00;;;;;;4402509;32;20060;-67
2023/05/08 08:51:27;;;;;;;0.40;0.40;;;14.30;96.90;;;;;;4407304;32;20113;-66
2023/05/08 08:54:02;;;;;;;0.70;0.70;;;14.30;96.00;;;;;;4400887;32;20136;-66
2023/05/08 08:56:29;;;;;;;0.40;0.40;;;14.40;96.20;;;;;;4399326;32;20547;-66
2023/05/08 08:58:58;;;;;;;1.02;0.50;;;14.60;97.10;;;;;;4398191;32;20101;-66
2023/05/08 09:01:25;;;;;;;0.40;0.40;;;14.90;96.60;;;;;;4403906;32;20093;-66
2023/05/08 09:03:51;;;;;;;0.40;0.40;;;15.20;97.50;;;;;;4403095;32;20137;-66
2023/05/08 09:06:18;;;;;;;0.25;0.25;;;15.10;94.50;;;;;;4406719;32;20065;-66
2023/05/08 09:08:44;;;;;;;0.40;0.40;;;15.10;95.30;;;;;;4399363;32;20081;-66
2023/05/08 09:11:09;;;;;;;0.40;0.40;;;15.20;95.90;;;;;;4404686;32;20417;-66
2023/05/08 09:13:35;;;;;;;0.40;0.40;;;15.10;95.80;;;;;;4401885;32;20076;-66
2023/05/08 09:16:00;;;;;;;0.40;0.40;;;15.20;96.00;;;;;;4401858;32;20089;-66
2023/05/08 09:18:27;;;;;;;1.45;1.12;;;15.30;95.30;;;;;;4404933;32;20101;-65
2023/05/08 09:20:53;;;;;;;0.65;0.57;;;15.30;95.30;;;;;;4404817;32;20109;-67
2023/05/08 09:23:18;;;;;;;0.40;0.40;;;15.20;95.00;;;;;;4395850;32;20145;-65
2023/05/08 09:25:46;;;;;;;0.80;0.80;;;15.50;95.70;;;;;;4391089;32;20102;-65
2023/05/08 09:28:18;;;;;;;1.62;0.88;;;15.50;95.10;;;;;;4394478;32;20097;-65
2023/05/08 09:30:56;;;;;;;0.40;0.40;;;15.50;94.10;;;;;;4404756;32;20084;-66
2023/05/08 09:33:25;;;;;;;0.50;0.50;;;15.60;94.70;;;;;;4388555;32;20096;-66
2023/05/08 09:35:50;;;;;;;0.50;0.50;;;15.70;94.20;;;;;;4391544;32;20175;-66
2023/05/08 09:38:35;;;;;;;2.80;1.65;;;15.80;94.50;;;;;;4390190;32;20088;-66
2023/05/08 09:41:06;;;;;;;0.98;0.62;;;16.10;94.10;;;;;;4403700;32;20520;-67
2023/05/08 09:43:32;;;;;;;0.30;0.30;;;16.20;93.20;;;;;;4397284;32;20114;-66
2023/05/08 09:45:58;;;;;;;0.40;0.40;;;16.20;93.40;;;;;;4400170;32;20085;-67
2023/05/08 09:48:36;;;;;;;0.73;0.70;;;16.40;93.60;;;;;;4404958;32;20178;-67
2023/05/08 09:51:05;;;;;;;0.32;0.32;;;16.50;92.60;;;;;;4408941;32;20604;-66
2023/05/08 09:53:31;;;;;;;1.08;0.60;;;16.60;92.30;;;;;;4399593;32;20081;-67
2023/05/08 09:55:57;;;;;;;0.43;0.43;;;16.70;91.90;;;;;;4402522;32;20870;-68
2023/05/08 09:58:25;;;;;;;1.23;0.93;;;16.60;91.90;;;;;;4390667;32;20109;-66
2023/05/08 10:00:50;;;;;;;0.40;0.40;;;16.80;91.80;;;;;;4395223;32;22618;-67
2023/05/08 10:03:16;;;;;;;0.82;0.62;;;17.10;91.80;;;;;;4394567;32;20152;-67
2023/05/08 10:05:41;;;;;;;0.70;0.70;;;17.30;91.10;;;;;;4395521;32;20073;-67
2023/05/08 10:08:25;;;;;;;13.05;0.82;;;17.50;91.50;;;;;;4394402;32;20081;-66
2023/05/08 10:10:52;;;;;;;0.40;0.40;;;17.40;86.80;;;;;;4397734;32;20117;-66
2023/05/08 10:13:17;;;;;;;1.85;0.85;;;17.30;89.10;;;;;;4393054;32;20076;-66
2023/05/08 10:15:43;;;;;;;0.55;0.55;;;17.50;90.20;;;;;;4392864;32;20081;-66
2023/05/08 10:18:10;;;;;;;1.30;0.68;;;17.90;89.20;;;;;;4392567;32;20199;-67
2023/05/08 10:20:39;;;;;;;0.47;0.47;;;18.10;87.20;;;;;;4407438;32;20248;-66
2023/05/08 10:23:10;;;;;;;0.30;0.30;;;18.20;87.80;;;;;;4412976;32;20097;-67
2023/05/08 10:25:44;;;;;;;0.50;0.50;;;18.50;84.70;;;;;;4408323;32;20916;-69
2023/05/08 10:28:35;;;;;;;0.40;0.40;;;18.50;86.50;;;;;;4414302;32;20163;-67
2023/05/08 10:31:02;;;;;;;;;;;18.30;85.20;;;;;;4415247;32;20555;-67
2023/05/08 10:33:31;;;;;;;4.55;1.08;;;18.50;87.30;;;;;;4412321;32;20255;-67
2023/05/08 10:35:57;;;;;;;0.90;0.90;;;18.80;83.90;;;;;;4409605;32;20065;-67
2023/05/08 10:38:24;;;;;;;0.40;0.40;;;19.00;82.70;;;;;;4415715;32;20427;-67
2023/05/08 10:40:52;;;;;;;0.40;0.40;;;19.00;81.00;;;;;;4416987;32;20086;-67
2023/05/08 10:43:18;;;;;;;0.43;0.43;;;19.40;82.70;;;;;;4411987;32;20474;-66
2023/05/08 10:45:44;;;;;;;0.37;0.37;;;19.60;82.10;;;;;;4416500;32;20595;-67
2023/05/08 10:48:24;;;;;;;0.30;0.30;;;19.70;80.50;;;;;;4409461;32;20084;-68
2023/05/08 10:51:10;;;;;;;0.43;0.43;;;19.90;80.30;;;;;;4411600;32;20397;-67
2023/05/08 10:53:47;;;;;;;0.32;0.32;;;20.30;78.50;;;;;;4404595;32;20793;-67
2023/05/08 10:56:13;;;;;;;0.30;0.30;;;20.30;78.00;;;;;;4388942;32;20083;-67
2023/05/08 10:58:39;;;;;;;0.35;0.35;;;20.50;79.70;;;;;;4392103;32;20084;-67
2023/05/08 11:01:09;;;;;;;3.37;0.98;;;20.50;79.00;;;;;;4385872;32;20287;-71
2023/05/08 11:03:40;;;;;;;;;;;20.20;78.40;;;;;;4396025;32;20113;-69
2023/05/08 11:06:06;;;;;;;1.23;1.10;;;20.40;78.00;;;;;;4402430;32;20078;-69
2023/05/08 11:08:31;;;;;;;0.45;0.45;;;20.50;77.60;;;;;;4394134;32;20078;-70
2023/05/08 11:11:03;;;;;;;0.82;0.80;;;20.70;77.00;;;;;;4398354;32;20101;-68
2023/05/08 11:13:34;;;;;;;0.60;0.47;;;20.40;76.40;;;;;;4405034;32;20081;-71
2023/05/08 11:16:00;;;;;;;0.52;0.52;;;21.00;77.40;;;;;;4399423;32;20241;-70
2023/05/08 11:18:26;;;;;;;0.65;0.65;;;21.20;74.30;;;;;;4395634;32;20143;-67
2023/05/08 11:20:58;;;;;;;2.15;1.17;;;21.50;74.60;;;;;;4398258;32;20708;-69
2023/05/08 11:23:26;;;;;;;0.20;0.20;;;21.60;70.00;;;;;;4403717;32;20128;-70
2023/05/08 11:26:00;;;;;;;6.78;0.82;;;21.10;71.10;;;;;;4398876;32;20110;-70
2023/05/08 11:28:26;;;;;;;21.98;2.85;;;21.00;72.90;;;;;;4391671;32;20122;-70
2023/05/08 11:30:55;;;;;;;1.15;0.40;;;21.40;73.40;;;;;;4392659;32;20081;-70
2023/05/08 11:33:21;;;;;;;4.32;0.70;;;21.50;72.00;;;;;;4399575;32;20110;-69
2023/05/08 11:35:49;;;;;;;0.32;0.32;;;21.30;72.30;;;;;;4396843;32;20110;-70
2023/05/08 11:38:25;;;;;;;0.30;0.30;;;21.70;72.30;;;;;;4397433;32;21613;-69
2023/05/08 11:41:10;;;;;;;0.30;0.30;;;22.10;70.10;;;;;;4392572;32;20783;-70
2023/05/08 11:43:53;;;;;;;0.20;0.20;;;22.30;71.20;;;;;;4377562;32;20176;-70
2023/05/08 11:46:20;;;;;;;0.25;0.25;;;22.30;72.80;;;;;;4389641;32;85848;-70
2023/05/08 11:48:47;;;;;;;0.30;0.20;;;22.60;69.60;;;;;;4384203;32;20188;-68
2023/05/08 11:51:15;;;;;;;0.10;0.10;;;22.90;67.10;;;;;;4401433;32;20266;-67
2023/05/08 11:53:42;;;;;;;0.20;0.20;;;22.60;68.30;;;;;;4399380;32;20464;-68
2023/05/08 11:56:08;;;;;;;0.20;0.20;;;22.40;71.40;;;;;;4406211;32;20100;-68
2023/05/08 11:58:35;;;;;;;0.20;0.20;;;22.40;69.60;;;;;;4407707;32;20092;-70
2023/05/08 12:01:00;;;;;;;0.20;0.20;;;22.90;68.40;;;;;;4398256;32;20723;-68
2023/05/08 12:03:26;;;;;;;0.13;0.13;;;23.00;65.30;;;;;;4402195;32;21527;-68
2023/05/08 12:05:56;;;;;;;0.13;0.13;;;23.20;66.20;;;;;;4405237;32;20082;-68
2023/05/08 12:08:23;;;;;;;1.75;0.22;;;23.50;64.80;;;;;;4404364;32;20113;-68
2023/05/08 12:10:51;;;;;;;0.15;0.15;;;23.70;63.50;;;;;;4407266;32;20106;-67
2023/05/08 12:13:20;;;;;;;0.20;0.20;;;23.90;65.80;;;;;;4406178;32;20117;-68
2023/05/08 12:15:47;;;;;;;0.20;0.15;;;23.90;63.10;;;;;;4414425;32;20186;-67
2023/05/08 12:18:14;;;;;;;0.28;0.17;;;24.50;63.80;;;;;;4411769;32;20205;-67
2023/05/08 12:20:40;;;;;;;1.52;0.73;;;24.50;60.80;;;;;;4413240;32;20262;-67
2023/05/08 12:23:05;;;;;;;0.90;0.32;;;24.50;61.20;;;;;;4409157;32;20274;-67
2023/05/08 12:25:31;;;;;;;0.10;0.10;;;24.40;60.80;;;;;;4405847;32;20154;-66
2023/05/08 12:27:58;;;;;;;0.25;0.25;;;24.80;59.40;;;;;;4409279;32;20565;-70
2023/05/08 12:30:24;;;;;;;0.20;0.10;;;24.40;59.40;;;;;;4411831;32;20078;-68
2023/05/08 12:32:50;;;;;;;0.45;0.30;;;24.10;59.30;;;;;;4402149;32;20172;-67
2023/05/08 12:35:15;;;;;;;0.25;0.25;;;24.50;59.50;;;;;;4413194;32;20089;-67
2023/05/08 12:37:41;;;;;;;0.10;0.10;;;23.90;61.50;;;;;;4418922;32;20145;-67
2023/05/08 12:40:07;;;;;;;1.67;0.13;;;23.70;59.40;;;;;;4421313;32;20237;-67
2023/05/08 12:42:49;;;;;;;0.20;0.20;;;23.90;59.00;;;;;;4421260;32;20078;-68
2023/05/08 12:45:20;;;;;;;1.87;0.85;;;24.50;59.10;;;;;;4417243;32;20818;-68
2023/05/08 12:47:48;;;;;;;0.10;0.10;;;24.50;60.50;;;;;;4419563;32;20086;-68
2023/05/08 12:50:15;;;;;;;0.17;0.13;;;24.50;58.40;;;;;;4420847;32;20101;-68
2023/05/08 12:52:41;;;;;;;0.15;0.15;;;24.60;58.60;;;;;;4422677;32;20065;-68
2023/05/08 12:55:22;;;;;;;1.02;0.13;;;25.70;57.10;;;;;;4423919;32;20109;-68
2023/05/08 12:57:48;;;;;;;0.15;0.15;;;26.10;57.50;;;;;;4422425;32;20112;-68
2023/05/08 13:00:15;;;;;;;0.40;0.20;;;26.30;55.80;;;;;;4422769;32;20065;-68